<?xml version="1.0" encoding="UTF-8" standalone="no" ?>
<gpx xmlns="http://www.topografix.com/GPX/1/1" xmlns:xsi="http://www.w3.org/2001/XMLSchema-instance" xsi:schemaLocation="http://www.topografix.com/GPX/1/1 http://www.topografix.com/GPX/1/1/gpx.xsd" version="1.1" creator="VisuGPX - https://www.visugpx.com">
  <metadata>
    <name>Sentier de Mela</name>
    <desc><![CDATA[Traces du 23/02/2025 en descente et montée]]></desc>
  </metadata>
  <trk>
    <name><![CDATA[Sentier de Mela descente 23/02/25]]></name>
    <desc><![CDATA[comment ...]]></desc>
    <extensions>
      <line xmlns="http://www.topografix.com/GPX/gpx_style/0/2">
        <color>0000FF</color>
        <opacity>1</opacity>
        <width>5</width>
          <extensions>
            <sens>1</sens>
          </extensions>
      </line>
    </extensions>
    <trkseg>
      <trkpt lat="41.75469" lon="9.27703">
        <ele>347</ele>
        <time>2025-02-23T08:54:51Z</time>
      </trkpt>
      <trkpt lat="41.75469" lon="9.27702">
        <ele>346</ele>
        <time>2025-02-23T08:54:53Z</time>
      </trkpt>
      <trkpt lat="41.75464" lon="9.27706">
        <ele>341</ele>
        <time>2025-02-23T08:55:19Z</time>
      </trkpt>
      <trkpt lat="41.75459" lon="9.27706">
        <ele>339</ele>
        <time>2025-02-23T08:55:29Z</time>
      </trkpt>
      <trkpt lat="41.75457" lon="9.277">
        <ele>338</ele>
        <time>2025-02-23T08:55:37Z</time>
      </trkpt>
      <trkpt lat="41.75452" lon="9.27694">
        <ele>337</ele>
        <time>2025-02-23T08:55:47Z</time>
      </trkpt>
      <trkpt lat="41.75442" lon="9.27696">
        <ele>335</ele>
        <time>2025-02-23T08:56:09Z</time>
      </trkpt>
      <trkpt lat="41.75435" lon="9.27697">
        <ele>332</ele>
        <time>2025-02-23T08:56:23Z</time>
      </trkpt>
      <trkpt lat="41.75433" lon="9.27699">
        <ele>331</ele>
        <time>2025-02-23T08:56:29Z</time>
      </trkpt>
      <trkpt lat="41.75434" lon="9.27704">
        <ele>330</ele>
        <time>2025-02-23T08:56:33Z</time>
      </trkpt>
      <trkpt lat="41.75436" lon="9.27711">
        <ele>329</ele>
        <time>2025-02-23T08:56:43Z</time>
      </trkpt>
      <trkpt lat="41.75438" lon="9.27706">
        <ele>328</ele>
        <time>2025-02-23T08:57:03Z</time>
      </trkpt>
      <trkpt lat="41.75436" lon="9.27693">
        <ele>326</ele>
        <time>2025-02-23T08:57:15Z</time>
      </trkpt>
      <trkpt lat="41.75438" lon="9.277">
        <ele>325</ele>
        <time>2025-02-23T08:57:25Z</time>
      </trkpt>
      <trkpt lat="41.7544" lon="9.27706">
        <ele>325</ele>
        <time>2025-02-23T08:57:29Z</time>
      </trkpt>
      <trkpt lat="41.75443" lon="9.27712">
        <ele>324</ele>
        <time>2025-02-23T08:57:33Z</time>
      </trkpt>
      <trkpt lat="41.75442" lon="9.27722">
        <ele>323</ele>
        <time>2025-02-23T08:57:47Z</time>
      </trkpt>
      <trkpt lat="41.75447" lon="9.27731">
        <ele>322</ele>
        <time>2025-02-23T08:57:51Z</time>
      </trkpt>
      <trkpt lat="41.75437" lon="9.27737">
        <ele>321</ele>
        <time>2025-02-23T08:58:41Z</time>
      </trkpt>
      <trkpt lat="41.75426" lon="9.27737">
        <ele>320</ele>
        <time>2025-02-23T08:58:55Z</time>
      </trkpt>
      <trkpt lat="41.7542" lon="9.27739">
        <ele>319</ele>
        <time>2025-02-23T08:59:15Z</time>
      </trkpt>
      <trkpt lat="41.75414" lon="9.2774">
        <ele>318</ele>
        <time>2025-02-23T09:00:09Z</time>
      </trkpt>
      <trkpt lat="41.75409" lon="9.27736">
        <ele>318</ele>
        <time>2025-02-23T09:00:33Z</time>
      </trkpt>
      <trkpt lat="41.75404" lon="9.27738">
        <ele>317</ele>
        <time>2025-02-23T09:00:49Z</time>
      </trkpt>
      <trkpt lat="41.75399" lon="9.27743">
        <ele>316</ele>
        <time>2025-02-23T09:01:03Z</time>
      </trkpt>
      <trkpt lat="41.75386" lon="9.27746">
        <ele>316</ele>
        <time>2025-02-23T09:01:15Z</time>
      </trkpt>
      <trkpt lat="41.75382" lon="9.27748">
        <ele>316</ele>
        <time>2025-02-23T09:01:27Z</time>
      </trkpt>
      <trkpt lat="41.75376" lon="9.27751">
        <ele>315</ele>
        <time>2025-02-23T09:01:39Z</time>
      </trkpt>
      <trkpt lat="41.75371" lon="9.27753">
        <ele>314</ele>
        <time>2025-02-23T09:02:01Z</time>
      </trkpt>
      <trkpt lat="41.75366" lon="9.27752">
        <ele>313</ele>
        <time>2025-02-23T09:02:11Z</time>
      </trkpt>
      <trkpt lat="41.75363" lon="9.27756">
        <ele>313</ele>
        <time>2025-02-23T09:02:19Z</time>
      </trkpt>
      <trkpt lat="41.7536" lon="9.2776">
        <ele>312</ele>
        <time>2025-02-23T09:02:27Z</time>
      </trkpt>
      <trkpt lat="41.75356" lon="9.27775">
        <ele>311</ele>
        <time>2025-02-23T09:02:39Z</time>
      </trkpt>
      <trkpt lat="41.75341" lon="9.27791">
        <ele>310</ele>
        <time>2025-02-23T09:03:03Z</time>
      </trkpt>
      <trkpt lat="41.75338" lon="9.27801">
        <ele>309</ele>
        <time>2025-02-23T09:03:15Z</time>
      </trkpt>
      <trkpt lat="41.75328" lon="9.2782">
        <ele>308</ele>
        <time>2025-02-23T09:03:29Z</time>
      </trkpt>
      <trkpt lat="41.75325" lon="9.27827">
        <ele>307</ele>
        <time>2025-02-23T09:04:07Z</time>
      </trkpt>
      <trkpt lat="41.75328" lon="9.27839">
        <ele>306</ele>
        <time>2025-02-23T09:04:37Z</time>
      </trkpt>
      <trkpt lat="41.7533" lon="9.27849">
        <ele>304</ele>
        <time>2025-02-23T09:06:23Z</time>
      </trkpt>
      <trkpt lat="41.75334" lon="9.27854">
        <ele>304</ele>
        <time>2025-02-23T09:06:39Z</time>
      </trkpt>
      <trkpt lat="41.75331" lon="9.27861">
        <ele>302</ele>
        <time>2025-02-23T09:07:03Z</time>
      </trkpt>
      <trkpt lat="41.75328" lon="9.27868">
        <ele>302</ele>
        <time>2025-02-23T09:07:15Z</time>
      </trkpt>
      <trkpt lat="41.75328" lon="9.27874">
        <ele>301</ele>
        <time>2025-02-23T09:07:21Z</time>
      </trkpt>
      <trkpt lat="41.75329" lon="9.27884">
        <ele>301</ele>
        <time>2025-02-23T09:08:26Z</time>
      </trkpt>
    </trkseg>
  </trk>
</gpx>